RYR492F EBCI-LOWW
Flight info
| Callsign | RYR492F |
|---|---|
| Flight time | 1h 23m |
| Altitude | 35000 |
| Route | SOPOK Y863 OGLOR DCT EMGOD DCT BOMBI DCT BOREP DCT ENITA DCT ETVIS DCT BUDEX BUDEX2W |
| Aircraft | A320/M-SDE3FGHIRWY/LB1 |
Departure
| Time | 2026-04-22 11:25 |
|---|---|
| Airport | Brussels South Charleroi Airport (EBCI) |
Arrival
| Time | 2026-04-22 12:49 |
|---|---|
| Airport | Vienna International Airport (LOWW) |
| Time | Latitude | Longitude | Altitude | Speed | Heading |
|---|---|---|---|---|---|
| 2026-04-22 10:48 | 50.46927 | 4.47287 | 613 ft | 0 kts | 335° |
| 2026-04-22 10:52 | 50.46926 | 4.47287 | 613 ft | 0 kts | 335° |
| 2026-04-22 11:11 | 50.46924 | 4.47289 | 613 ft | 3 kts | 335° |
| 2026-04-22 11:11 | 50.46900 | 4.47306 | 626 ft | 4 kts | 327° |
| 2026-04-22 11:11 | 50.46884 | 4.47335 | 626 ft | 4 kts | 273° |
| 2026-04-22 11:11 | 50.46887 | 4.47362 | 621 ft | 1 kts | 245° |
| 2026-04-22 11:12 | 50.46888 | 4.47367 | 621 ft | 1 kts | 245° |
| 2026-04-22 11:15 | 50.46884 | 4.47354 | 626 ft | 4 kts | 245° |
| 2026-04-22 11:15 | 50.46855 | 4.47254 | 623 ft | 16 kts | 245° |
| 2026-04-22 11:15 | 50.46809 | 4.47096 | 616 ft | 15 kts | 245° |
| 2026-04-22 11:16 | 50.46768 | 4.46953 | 624 ft | 14 kts | 245° |
| 2026-04-22 11:16 | 50.46729 | 4.46822 | 621 ft | 13 kts | 245° |
| 2026-04-22 11:16 | 50.46695 | 4.46704 | 619 ft | 13 kts | 245° |
| 2026-04-22 11:16 | 50.46646 | 4.46535 | 618 ft | 18 kts | 245° |
| 2026-04-22 11:17 | 50.46607 | 4.46526 | 622 ft | 4 kts | 136° |
| 2026-04-22 11:17 | 50.46557 | 4.46558 | 618 ft | 11 kts | 179° |
| 2026-04-22 11:17 | 50.46512 | 4.46475 | 613 ft | 13 kts | 246° |
| 2026-04-22 11:17 | 50.46466 | 4.46315 | 620 ft | 17 kts | 245° |
| 2026-04-22 11:18 | 50.46419 | 4.46153 | 624 ft | 16 kts | 246° |
| 2026-04-22 11:18 | 50.46375 | 4.46003 | 620 ft | 14 kts | 245° |
| 2026-04-22 11:18 | 50.46336 | 4.45868 | 619 ft | 13 kts | 245° |
| 2026-04-22 11:18 | 50.46300 | 4.45747 | 620 ft | 12 kts | 245° |
| 2026-04-22 11:19 | 50.46269 | 4.45638 | 620 ft | 10 kts | 246° |
| 2026-04-22 11:19 | 50.46242 | 4.45545 | 617 ft | 9 kts | 245° |
| 2026-04-22 11:19 | 50.46218 | 4.45463 | 616 ft | 9 kts | 245° |
| 2026-04-22 11:19 | 50.46193 | 4.45379 | 620 ft | 8 kts | 245° |
| 2026-04-22 11:20 | 50.46171 | 4.45302 | 619 ft | 10 kts | 245° |
| 2026-04-22 11:20 | 50.46142 | 4.45203 | 615 ft | 9 kts | 245° |
| 2026-04-22 11:20 | 50.46117 | 4.45116 | 616 ft | 8 kts | 245° |
| 2026-04-22 11:20 | 50.46091 | 4.45026 | 615 ft | 9 kts | 245° |
| 2026-04-22 11:21 | 50.46051 | 4.44887 | 615 ft | 20 kts | 245° |
| 2026-04-22 11:21 | 50.45994 | 4.44691 | 616 ft | 19 kts | 245° |
| 2026-04-22 11:21 | 50.45940 | 4.44510 | 618 ft | 17 kts | 244° |
| 2026-04-22 11:21 | 50.45876 | 4.44358 | 618 ft | 16 kts | 232° |
| 2026-04-22 11:22 | 50.45817 | 4.44242 | 617 ft | 13 kts | 232° |
| 2026-04-22 11:22 | 50.45777 | 4.44161 | 624 ft | 1 kts | 232° |
| 2026-04-22 11:22 | 50.45777 | 4.44160 | 613 ft | 0 kts | 232° |
| 2026-04-22 11:23 | 50.45777 | 4.44159 | 613 ft | 0 kts | 232° |
| 2026-04-22 11:23 | 50.45763 | 4.44131 | 618 ft | 7 kts | 232° |
| 2026-04-22 11:24 | 50.45717 | 4.44039 | 619 ft | 14 kts | 232° |
| 2026-04-22 11:24 | 50.45646 | 4.43986 | 624 ft | 11 kts | 154° |
| 2026-04-22 11:24 | 50.45639 | 4.44092 | 618 ft | 11 kts | 65° |
| 2026-04-22 11:24 | 50.45677 | 4.44220 | 618 ft | 19 kts | 66° |
| 2026-04-22 11:25 | 50.45833 | 4.44756 | 618 ft | 88 kts | 65° |
| 2026-04-22 11:25 | 50.46170 | 4.45919 | 620 ft | 143 kts | 65° |
| 2026-04-22 11:25 | 50.46602 | 4.47430 | 1105 ft | 154 kts | 65° |
| 2026-04-22 11:25 | 50.47217 | 4.48807 | 1918 ft | 157 kts | 52° |
| 2026-04-22 11:26 | 50.47926 | 4.50105 | 2635 ft | 161 kts | 54° |
| 2026-04-22 11:26 | 50.48695 | 4.51531 | 3034 ft | 183 kts | 53° |
| 2026-04-22 11:26 | 50.49578 | 4.53155 | 3414 ft | 208 kts | 52° |
| 2026-04-22 11:26 | 50.50573 | 4.54983 | 3887 ft | 232 kts | 52° |
| 2026-04-22 11:27 | 50.51636 | 4.56940 | 4614 ft | 244 kts | 52° |
| 2026-04-22 11:27 | 50.52748 | 4.58994 | 5503 ft | 249 kts | 53° |
| 2026-04-22 11:27 | 50.53845 | 4.61123 | 6422 ft | 253 kts | 54° |
| 2026-04-22 11:27 | 50.54693 | 4.62852 | 7109 ft | 255 kts | 55° |
| 2026-04-22 11:28 | 50.55776 | 4.65077 | 7977 ft | 259 kts | 55° |
| 2026-04-22 11:28 | 50.56869 | 4.67307 | 8811 ft | 262 kts | 54° |
| 2026-04-22 11:28 | 50.58017 | 4.69638 | 9697 ft | 266 kts | 54° |
| 2026-04-22 11:28 | 50.59162 | 4.71963 | 10520 ft | 272 kts | 54° |
| 2026-04-22 11:29 | 50.60354 | 4.74392 | 10852 ft | 294 kts | 54° |
| 2026-04-22 11:29 | 50.61631 | 4.76996 | 11182 ft | 314 kts | 54° |
| 2026-04-22 11:29 | 50.62993 | 4.79774 | 11850 ft | 321 kts | 54° |
| 2026-04-22 11:29 | 50.64338 | 4.82609 | 12600 ft | 325 kts | 58° |
| 2026-04-22 11:30 | 50.65311 | 4.85832 | 13359 ft | 328 kts | 72° |
| 2026-04-22 11:30 | 50.65741 | 4.89377 | 14108 ft | 333 kts | 86° |
| 2026-04-22 11:30 | 50.65578 | 4.93033 | 14759 ft | 339 kts | 100° |
| 2026-04-22 11:30 | 50.64918 | 4.96624 | 15427 ft | 343 kts | 105° |
| 2026-04-22 11:31 | 50.64205 | 5.00226 | 16093 ft | 347 kts | 105° |
| 2026-04-22 11:31 | 50.63488 | 5.03846 | 16730 ft | 350 kts | 105° |
| 2026-04-22 11:31 | 50.62767 | 5.07500 | 17384 ft | 354 kts | 105° |
| 2026-04-22 11:31 | 50.62033 | 5.11222 | 18030 ft | 357 kts | 105° |
| 2026-04-22 11:32 | 50.61302 | 5.14918 | 18656 ft | 361 kts | 105° |
| 2026-04-22 11:32 | 50.60548 | 5.18716 | 19209 ft | 365 kts | 105° |
| 2026-04-22 11:32 | 50.59777 | 5.22596 | 19786 ft | 368 kts | 105° |
| 2026-04-22 11:32 | 50.58997 | 5.26455 | 20359 ft | 372 kts | 108° |
| 2026-04-22 11:33 | 50.57720 | 5.29967 | 20896 ft | 382 kts | 129° |
| 2026-04-22 11:33 | 50.55750 | 5.32886 | 21459 ft | 387 kts | 135° |
| 2026-04-22 11:33 | 50.53740 | 5.35730 | 22028 ft | 390 kts | 135° |
| 2026-04-22 11:33 | 50.51779 | 5.38549 | 22564 ft | 394 kts | 134° |
| 2026-04-22 11:34 | 50.49751 | 5.41508 | 23097 ft | 397 kts | 134° |
| 2026-04-22 11:34 | 50.47724 | 5.44492 | 23611 ft | 400 kts | 134° |
| 2026-04-22 11:34 | 50.45722 | 5.47456 | 24072 ft | 403 kts | 134° |
| 2026-04-22 11:34 | 50.43664 | 5.50506 | 24489 ft | 407 kts | 134° |
| 2026-04-22 11:35 | 50.41585 | 5.53572 | 24882 ft | 410 kts | 134° |
| 2026-04-22 11:35 | 50.39504 | 5.56628 | 25255 ft | 414 kts | 134° |
| 2026-04-22 11:35 | 50.37366 | 5.59763 | 25631 ft | 417 kts | 134° |
| 2026-04-22 11:35 | 50.35262 | 5.62843 | 25985 ft | 421 kts | 134° |
| 2026-04-22 11:36 | 50.33121 | 5.65973 | 26336 ft | 424 kts | 134° |
| 2026-04-22 11:36 | 50.30952 | 5.69136 | 26677 ft | 428 kts | 135° |
| 2026-04-22 11:36 | 50.28782 | 5.72321 | 27031 ft | 430 kts | 133° |
| 2026-04-22 11:36 | 50.26827 | 5.75889 | 27370 ft | 431 kts | 123° |
| 2026-04-22 11:37 | 50.25275 | 5.79889 | 27692 ft | 431 kts | 114° |
| 2026-04-22 11:37 | 50.24150 | 5.84240 | 28026 ft | 432 kts | 104° |
| 2026-04-22 11:37 | 50.23377 | 5.88773 | 28358 ft | 434 kts | 102° |
| 2026-04-22 11:37 | 50.22630 | 5.93253 | 28678 ft | 437 kts | 102° |
| 2026-04-22 11:38 | 50.21857 | 5.97812 | 28997 ft | 440 kts | 102° |
| 2026-04-22 11:38 | 50.21055 | 6.02498 | 29313 ft | 442 kts | 102° |
| 2026-04-22 11:38 | 50.19454 | 6.11837 | 29937 ft | 447 kts | 103° |
| 2026-04-22 11:39 | 50.18745 | 6.16553 | 30228 ft | 448 kts | 96° |
| 2026-04-22 11:39 | 50.18465 | 6.21404 | 30475 ft | 448 kts | 88° |
| 2026-04-22 11:39 | 50.18635 | 6.26178 | 30711 ft | 447 kts | 82° |
| 2026-04-22 11:39 | 50.18955 | 6.31082 | 30953 ft | 449 kts | 82° |
| 2026-04-22 11:40 | 50.19260 | 6.35878 | 31173 ft | 451 kts | 82° |
| 2026-04-22 11:40 | 50.19562 | 6.40765 | 31379 ft | 453 kts | 82° |
| 2026-04-22 11:40 | 50.19861 | 6.45659 | 31666 ft | 453 kts | 82° |
| 2026-04-22 11:40 | 50.20156 | 6.50540 | 31986 ft | 453 kts | 82° |
| 2026-04-22 11:41 | 50.20447 | 6.55449 | 32293 ft | 453 kts | 82° |
| 2026-04-22 11:41 | 50.20737 | 6.60348 | 32580 ft | 453 kts | 82° |
| 2026-04-22 11:41 | 50.20953 | 6.65257 | 32872 ft | 455 kts | 87° |
| 2026-04-22 11:41 | 50.20886 | 6.70204 | 33152 ft | 456 kts | 89° |
| 2026-04-22 11:42 | 50.20799 | 6.75150 | 33438 ft | 457 kts | 89° |
| 2026-04-22 11:42 | 50.20705 | 6.80115 | 33719 ft | 457 kts | 89° |
| 2026-04-22 11:42 | 50.20612 | 6.84983 | 34009 ft | 457 kts | 89° |
| 2026-04-22 11:42 | 50.20518 | 6.89967 | 34295 ft | 458 kts | 89° |
| 2026-04-22 11:43 | 50.20428 | 6.94913 | 34537 ft | 458 kts | 89° |
| 2026-04-22 11:43 | 50.20334 | 6.99891 | 34783 ft | 458 kts | 89° |
| 2026-04-22 11:43 | 50.20237 | 7.04855 | 35043 ft | 457 kts | 89° |
| 2026-04-22 11:43 | 50.20135 | 7.09787 | 35240 ft | 457 kts | 89° |
| 2026-04-22 11:44 | 50.19926 | 7.19697 | 35297 ft | 454 kts | 89° |
| 2026-04-22 11:44 | 50.19714 | 7.29450 | 35306 ft | 452 kts | 89° |
| 2026-04-22 11:45 | 50.19083 | 7.39228 | 35310 ft | 454 kts | 95° |
| 2026-04-22 11:45 | 50.18214 | 7.48985 | 35326 ft | 454 kts | 95° |
| 2026-04-22 11:46 | 50.17334 | 7.58723 | 35329 ft | 454 kts | 95° |
| 2026-04-22 11:46 | 50.16447 | 7.68401 | 35337 ft | 453 kts | 95° |
| 2026-04-22 11:47 | 50.15555 | 7.78122 | 35336 ft | 453 kts | 95° |
| 2026-04-22 11:47 | 50.14657 | 7.87841 | 35342 ft | 453 kts | 95° |
| 2026-04-22 11:48 | 50.13748 | 7.97551 | 35340 ft | 452 kts | 95° |
| 2026-04-22 11:48 | 50.12836 | 8.07190 | 35346 ft | 452 kts | 96° |
| 2026-04-22 11:49 | 50.11912 | 8.16879 | 35340 ft | 452 kts | 96° |
| 2026-04-22 11:49 | 50.10977 | 8.26554 | 35347 ft | 452 kts | 96° |
| 2026-04-22 11:50 | 50.10035 | 8.36226 | 35344 ft | 451 kts | 96° |
| 2026-04-22 11:50 | 50.09091 | 8.45822 | 35346 ft | 451 kts | 96° |
| 2026-04-22 11:51 | 50.08139 | 8.55468 | 35334 ft | 451 kts | 96° |
| 2026-04-22 11:51 | 50.07173 | 8.65122 | 35338 ft | 450 kts | 96° |
| 2026-04-22 11:52 | 50.06210 | 8.74684 | 35334 ft | 450 kts | 96° |
| 2026-04-22 11:52 | 50.05482 | 8.84328 | 35333 ft | 447 kts | 91° |
| 2026-04-22 11:53 | 50.05078 | 8.93982 | 35324 ft | 447 kts | 91° |
| 2026-04-22 11:53 | 50.04668 | 9.03642 | 35319 ft | 447 kts | 91° |
| 2026-04-22 11:54 | 50.04244 | 9.13268 | 35313 ft | 447 kts | 91° |
| 2026-04-22 11:54 | 50.03804 | 9.22843 | 35300 ft | 446 kts | 91° |
| 2026-04-22 11:55 | 50.03361 | 9.32481 | 35312 ft | 445 kts | 91° |
| 2026-04-22 11:55 | 50.02910 | 9.42083 | 35324 ft | 445 kts | 91° |
| 2026-04-22 11:56 | 50.02454 | 9.51670 | 35322 ft | 444 kts | 91° |
| 2026-04-22 11:56 | 50.01994 | 9.61143 | 35325 ft | 444 kts | 91° |
| 2026-04-22 11:57 | 50.01520 | 9.70744 | 35325 ft | 443 kts | 91° |
| 2026-04-22 11:57 | 50.01046 | 9.80279 | 35332 ft | 443 kts | 91° |
| 2026-04-22 11:58 | 50.00562 | 9.89828 | 35338 ft | 443 kts | 91° |
| 2026-04-22 11:58 | 50.00073 | 9.99317 | 35345 ft | 443 kts | 91° |
| 2026-04-22 11:59 | 49.99572 | 10.08796 | 35349 ft | 443 kts | 91° |
| 2026-04-22 11:59 | 49.99055 | 10.18385 | 35349 ft | 443 kts | 91° |
| 2026-04-22 12:00 | 49.98539 | 10.27914 | 35350 ft | 443 kts | 91° |
| 2026-04-22 12:00 | 49.98017 | 10.37437 | 35352 ft | 443 kts | 92° |
| 2026-04-22 12:01 | 49.97493 | 10.46909 | 35356 ft | 443 kts | 91° |
| 2026-04-22 12:01 | 49.96955 | 10.56424 | 35353 ft | 442 kts | 92° |
| 2026-04-22 12:02 | 49.96177 | 10.65888 | 35346 ft | 445 kts | 98° |
| 2026-04-22 12:02 | 49.94900 | 10.75299 | 35345 ft | 445 kts | 98° |
| 2026-04-22 12:03 | 49.93626 | 10.84691 | 35328 ft | 445 kts | 98° |
| 2026-04-22 12:03 | 49.92351 | 10.94022 | 35337 ft | 445 kts | 98° |
| 2026-04-22 12:04 | 49.91064 | 11.03409 | 35335 ft | 444 kts | 99° |
| 2026-04-22 12:04 | 49.89762 | 11.12755 | 35331 ft | 444 kts | 99° |
| 2026-04-22 12:05 | 49.88452 | 11.22132 | 35332 ft | 444 kts | 99° |
| 2026-04-22 12:05 | 49.87150 | 11.31431 | 35330 ft | 444 kts | 99° |
| 2026-04-22 12:06 | 49.85837 | 11.40783 | 35331 ft | 444 kts | 99° |
| 2026-04-22 12:06 | 49.84508 | 11.50147 | 35329 ft | 444 kts | 99° |
| 2026-04-22 12:07 | 49.83173 | 11.59491 | 35319 ft | 444 kts | 99° |
| 2026-04-22 12:07 | 49.81843 | 11.68745 | 35315 ft | 444 kts | 99° |
| 2026-04-22 12:08 | 49.80490 | 11.78100 | 35306 ft | 444 kts | 99° |
| 2026-04-22 12:08 | 49.79136 | 11.87430 | 35300 ft | 444 kts | 99° |
| 2026-04-22 12:09 | 49.77774 | 11.96753 | 35288 ft | 444 kts | 99° |
| 2026-04-22 12:09 | 49.76412 | 12.05999 | 35292 ft | 444 kts | 99° |
| 2026-04-22 12:10 | 49.75029 | 12.15305 | 35291 ft | 444 kts | 100° |
| 2026-04-22 12:10 | 49.73643 | 12.24608 | 35294 ft | 444 kts | 100° |
| 2026-04-22 12:11 | 49.72245 | 12.33905 | 35304 ft | 444 kts | 100° |
| 2026-04-22 12:11 | 49.70848 | 12.43131 | 35305 ft | 444 kts | 100° |
| 2026-04-22 12:12 | 49.69462 | 12.52422 | 35314 ft | 444 kts | 99° |
| 2026-04-22 12:12 | 49.68181 | 12.61660 | 35314 ft | 443 kts | 98° |
| 2026-04-22 12:13 | 49.66895 | 12.71043 | 35315 ft | 443 kts | 99° |
| 2026-04-22 12:13 | 49.65389 | 12.80188 | 35310 ft | 446 kts | 108° |
| 2026-04-22 12:14 | 49.62316 | 12.88551 | 35309 ft | 452 kts | 122° |
| 2026-04-22 12:14 | 49.58708 | 12.96500 | 35314 ft | 452 kts | 122° |
| 2026-04-22 12:15 | 49.55120 | 13.04378 | 35311 ft | 452 kts | 122° |
| 2026-04-22 12:15 | 49.51509 | 13.12279 | 35312 ft | 452 kts | 122° |
| 2026-04-22 12:16 | 49.47890 | 13.20199 | 35308 ft | 452 kts | 122° |
| 2026-04-22 12:16 | 49.44271 | 13.28103 | 35308 ft | 452 kts | 122° |
| 2026-04-22 12:17 | 49.40636 | 13.36005 | 35310 ft | 453 kts | 122° |
| 2026-04-22 12:17 | 49.37023 | 13.43832 | 35301 ft | 453 kts | 122° |
| 2026-04-22 12:18 | 49.33373 | 13.51719 | 35303 ft | 453 kts | 122° |
| 2026-04-22 12:18 | 49.29722 | 13.59587 | 35301 ft | 453 kts | 122° |
| 2026-04-22 12:19 | 49.26068 | 13.67435 | 35296 ft | 453 kts | 122° |
| 2026-04-22 12:19 | 49.22423 | 13.75248 | 35297 ft | 453 kts | 122° |
| 2026-04-22 12:20 | 49.18749 | 13.83077 | 35297 ft | 453 kts | 122° |
| 2026-04-22 12:20 | 49.15074 | 13.90897 | 35288 ft | 453 kts | 122° |
| 2026-04-22 12:21 | 49.11395 | 13.98717 | 35016 ft | 453 kts | 122° |
| 2026-04-22 12:21 | 49.09555 | 14.02618 | 34778 ft | 453 kts | 122° |
| 2026-04-22 12:21 | 49.07714 | 14.06512 | 34554 ft | 453 kts | 122° |
| 2026-04-22 12:22 | 49.05878 | 14.10395 | 34331 ft | 452 kts | 122° |
| 2026-04-22 12:22 | 49.04061 | 14.14236 | 34068 ft | 452 kts | 122° |
| 2026-04-22 12:22 | 49.02216 | 14.18124 | 33790 ft | 452 kts | 122° |
| 2026-04-22 12:22 | 49.00367 | 14.22007 | 33521 ft | 452 kts | 122° |
| 2026-04-22 12:23 | 48.98522 | 14.25876 | 33255 ft | 451 kts | 122° |
| 2026-04-22 12:23 | 48.96685 | 14.29724 | 32979 ft | 450 kts | 122° |
| 2026-04-22 12:23 | 48.94845 | 14.33577 | 32720 ft | 448 kts | 122° |
| 2026-04-22 12:23 | 48.92995 | 14.37382 | 32450 ft | 446 kts | 123° |
| 2026-04-22 12:24 | 48.91153 | 14.41064 | 32017 ft | 441 kts | 124° |
| 2026-04-22 12:24 | 48.89283 | 14.44736 | 31418 ft | 438 kts | 124° |
| 2026-04-22 12:24 | 48.87421 | 14.48366 | 30836 ft | 434 kts | 124° |
| 2026-04-22 12:24 | 48.85574 | 14.51971 | 30256 ft | 430 kts | 124° |
| 2026-04-22 12:25 | 48.83749 | 14.55545 | 29641 ft | 425 kts | 124° |
| 2026-04-22 12:25 | 48.81956 | 14.59065 | 29090 ft | 419 kts | 124° |
| 2026-04-22 12:25 | 48.80182 | 14.62550 | 28539 ft | 414 kts | 124° |
| 2026-04-22 12:25 | 48.78432 | 14.65991 | 28002 ft | 410 kts | 124° |
| 2026-04-22 12:26 | 48.76703 | 14.69394 | 27473 ft | 405 kts | 123° |
| 2026-04-22 12:26 | 48.75013 | 14.72716 | 26954 ft | 401 kts | 124° |
| 2026-04-22 12:26 | 48.73317 | 14.76041 | 26455 ft | 397 kts | 124° |
| 2026-04-22 12:26 | 48.71633 | 14.79342 | 25956 ft | 394 kts | 124° |
| 2026-04-22 12:27 | 48.69968 | 14.82598 | 25469 ft | 390 kts | 124° |
| 2026-04-22 12:27 | 48.68312 | 14.85826 | 25005 ft | 387 kts | 124° |
| 2026-04-22 12:27 | 48.66665 | 14.89030 | 24540 ft | 384 kts | 124° |
| 2026-04-22 12:27 | 48.65031 | 14.92209 | 24069 ft | 381 kts | 124° |
| 2026-04-22 12:28 | 48.63410 | 14.95354 | 23585 ft | 378 kts | 124° |
| 2026-04-22 12:28 | 48.61799 | 14.98473 | 23109 ft | 374 kts | 124° |
| 2026-04-22 12:28 | 48.60251 | 15.01525 | 22665 ft | 368 kts | 120° |
| 2026-04-22 12:28 | 48.58999 | 15.04848 | 22227 ft | 359 kts | 110° |
| 2026-04-22 12:29 | 48.58167 | 15.08357 | 21781 ft | 352 kts | 101° |
| 2026-04-22 12:29 | 48.57563 | 15.11912 | 21354 ft | 348 kts | 101° |
| 2026-04-22 12:29 | 48.56952 | 15.15419 | 21065 ft | 340 kts | 101° |
| 2026-04-22 12:29 | 48.56319 | 15.18799 | 21003 ft | 329 kts | 102° |
| 2026-04-22 12:30 | 48.55005 | 15.25562 | 20666 ft | 348 kts | 103° |
| 2026-04-22 12:30 | 48.54323 | 15.29052 | 20414 ft | 352 kts | 103° |
| 2026-04-22 12:30 | 48.53629 | 15.32595 | 20155 ft | 352 kts | 103° |
| 2026-04-22 12:31 | 48.52935 | 15.36135 | 19909 ft | 351 kts | 103° |
| 2026-04-22 12:31 | 48.52245 | 15.39656 | 19658 ft | 350 kts | 103° |
| 2026-04-22 12:31 | 48.51553 | 15.43180 | 19406 ft | 349 kts | 103° |
| 2026-04-22 12:31 | 48.50867 | 15.46681 | 19159 ft | 348 kts | 103° |
| 2026-04-22 12:32 | 48.50206 | 15.50058 | 18918 ft | 347 kts | 103° |
| 2026-04-22 12:32 | 48.48829 | 15.57074 | 18419 ft | 345 kts | 103° |
| 2026-04-22 12:32 | 48.48147 | 15.60531 | 18139 ft | 343 kts | 103° |
| 2026-04-22 12:33 | 48.47481 | 15.63973 | 17864 ft | 342 kts | 102° |
| 2026-04-22 12:33 | 48.46812 | 15.67409 | 17588 ft | 341 kts | 103° |
| 2026-04-22 12:33 | 48.46127 | 15.70817 | 17333 ft | 340 kts | 103° |
| 2026-04-22 12:33 | 48.45432 | 15.74213 | 17059 ft | 339 kts | 103° |
| 2026-04-22 12:34 | 48.44734 | 15.77597 | 16785 ft | 338 kts | 103° |
| 2026-04-22 12:34 | 48.44047 | 15.80926 | 16532 ft | 337 kts | 103° |
| 2026-04-22 12:34 | 48.43354 | 15.84292 | 16271 ft | 336 kts | 103° |
| 2026-04-22 12:34 | 48.42669 | 15.87629 | 16011 ft | 335 kts | 103° |
| 2026-04-22 12:35 | 48.41980 | 15.90987 | 15761 ft | 334 kts | 103° |
| 2026-04-22 12:35 | 48.41297 | 15.94318 | 15497 ft | 333 kts | 103° |
| 2026-04-22 12:35 | 48.40501 | 15.97593 | 15244 ft | 335 kts | 112° |
| 2026-04-22 12:35 | 48.39468 | 16.00731 | 14983 ft | 334 kts | 113° |
| 2026-04-22 12:36 | 48.38430 | 16.03857 | 14741 ft | 334 kts | 113° |
| 2026-04-22 12:36 | 48.37403 | 16.06938 | 14496 ft | 333 kts | 113° |
| 2026-04-22 12:36 | 48.36361 | 16.10047 | 14253 ft | 333 kts | 113° |
| 2026-04-22 12:36 | 48.35319 | 16.13145 | 14006 ft | 332 kts | 113° |
| 2026-04-22 12:37 | 48.34274 | 16.16240 | 13644 ft | 331 kts | 114° |
| 2026-04-22 12:37 | 48.33233 | 16.19314 | 13179 ft | 329 kts | 114° |
| 2026-04-22 12:37 | 48.32202 | 16.22366 | 12724 ft | 327 kts | 114° |
| 2026-04-22 12:37 | 48.31188 | 16.25376 | 12284 ft | 325 kts | 114° |
| 2026-04-22 12:38 | 48.30180 | 16.28367 | 11835 ft | 323 kts | 114° |
| 2026-04-22 12:38 | 48.29162 | 16.31378 | 11417 ft | 321 kts | 114° |
| 2026-04-22 12:38 | 48.28152 | 16.34355 | 10992 ft | 319 kts | 114° |
| 2026-04-22 12:38 | 48.27149 | 16.37309 | 10602 ft | 317 kts | 114° |
| 2026-04-22 12:39 | 48.26152 | 16.40247 | 10203 ft | 314 kts | 113° |
| 2026-04-22 12:39 | 48.24188 | 16.46041 | 9347 ft | 309 kts | 114° |
| 2026-04-22 12:39 | 48.23221 | 16.48877 | 8914 ft | 300 kts | 114° |
| 2026-04-22 12:40 | 48.22303 | 16.51555 | 8551 ft | 286 kts | 114° |
| 2026-04-22 12:40 | 48.21398 | 16.54197 | 8244 ft | 283 kts | 114° |
| 2026-04-22 12:40 | 48.20504 | 16.56815 | 8117 ft | 282 kts | 114° |
| 2026-04-22 12:40 | 48.19626 | 16.59386 | 7984 ft | 270 kts | 114° |
| 2026-04-22 12:41 | 48.18782 | 16.61848 | 7855 ft | 262 kts | 114° |
| 2026-04-22 12:41 | 48.17958 | 16.64265 | 7723 ft | 260 kts | 113° |
| 2026-04-22 12:41 | 48.17152 | 16.66694 | 7485 ft | 259 kts | 113° |
| 2026-04-22 12:41 | 48.16369 | 16.69079 | 7406 ft | 258 kts | 112° |
| 2026-04-22 12:42 | 48.15576 | 16.71503 | 7326 ft | 260 kts | 113° |
| 2026-04-22 12:42 | 48.14778 | 16.73927 | 7047 ft | 259 kts | 113° |
| 2026-04-22 12:42 | 48.13982 | 16.76343 | 6696 ft | 259 kts | 113° |
| 2026-04-22 12:42 | 48.13188 | 16.78755 | 6324 ft | 258 kts | 113° |
| 2026-04-22 12:43 | 48.12394 | 16.81150 | 5960 ft | 257 kts | 114° |
| 2026-04-22 12:43 | 48.11278 | 16.83216 | 5599 ft | 259 kts | 146° |
| 2026-04-22 12:43 | 48.09572 | 16.83958 | 5212 ft | 259 kts | 184° |
| 2026-04-22 12:43 | 48.07880 | 16.83271 | 4814 ft | 246 kts | 205° |
| 2026-04-22 12:44 | 48.06373 | 16.82234 | 4444 ft | 239 kts | 209° |
| 2026-04-22 12:44 | 48.05010 | 16.80927 | 4066 ft | 228 kts | 233° |
| 2026-04-22 12:44 | 48.04378 | 16.78880 | 3727 ft | 210 kts | 270° |
| 2026-04-22 12:44 | 48.04584 | 16.76855 | 3496 ft | 190 kts | 299° |
| 2026-04-22 12:45 | 48.05145 | 16.75143 | 3279 ft | 177 kts | 301° |
| 2026-04-22 12:45 | 48.05677 | 16.73524 | 3017 ft | 170 kts | 300° |
| 2026-04-22 12:45 | 48.06182 | 16.71986 | 2781 ft | 159 kts | 300° |
| 2026-04-22 12:45 | 48.06653 | 16.70549 | 2583 ft | 152 kts | 300° |
| 2026-04-22 12:46 | 48.07114 | 16.69147 | 2383 ft | 150 kts | 301° |
| 2026-04-22 12:46 | 48.07558 | 16.67791 | 2170 ft | 144 kts | 302° |
| 2026-04-22 12:46 | 48.07980 | 16.66500 | 2010 ft | 134 kts | 302° |
| 2026-04-22 12:46 | 48.08389 | 16.65254 | 1799 ft | 131 kts | 301° |
| 2026-04-22 12:47 | 48.08787 | 16.64041 | 1633 ft | 130 kts | 301° |
| 2026-04-22 12:47 | 48.09186 | 16.62821 | 1454 ft | 131 kts | 301° |
| 2026-04-22 12:47 | 48.09585 | 16.61600 | 1263 ft | 130 kts | 301° |
| 2026-04-22 12:47 | 48.09983 | 16.60383 | 1077 ft | 130 kts | 300° |
| 2026-04-22 12:48 | 48.10370 | 16.59185 | 859 ft | 130 kts | 301° |
| 2026-04-22 12:48 | 48.10766 | 16.57985 | 683 ft | 128 kts | 301° |
| 2026-04-22 12:48 | 48.11150 | 16.56833 | 618 ft | 110 kts | 295° |
| 2026-04-22 12:48 | 48.11401 | 16.56044 | 610 ft | 63 kts | 296° |
| 2026-04-22 12:49 | 48.11570 | 16.55533 | 614 ft | 45 kts | 298° |
| 2026-04-22 12:49 | 48.11733 | 16.55239 | 610 ft | 18 kts | 315° |
| 2026-04-22 12:49 | 48.11825 | 16.55157 | 620 ft | 15 kts | 346° |
| 2026-04-22 12:49 | 48.11927 | 16.55189 | 610 ft | 16 kts | 31° |
| 2026-04-22 12:50 | 48.11924 | 16.55326 | 615 ft | 12 kts | 116° |
| 2026-04-22 12:50 | 48.11895 | 16.55429 | 610 ft | 9 kts | 86° |
| 2026-04-22 12:50 | 48.11930 | 16.55450 | 610 ft | 8 kts | 17° |
| 2026-04-22 12:50 | 48.11989 | 16.55491 | 610 ft | 11 kts | 26° |
| 2026-04-22 12:51 | 48.12037 | 16.55543 | 626 ft | 6 kts | 87° |
| 2026-04-22 12:51 | 48.12024 | 16.55589 | 615 ft | 4 kts | 116° |
| 2026-04-22 12:51 | 48.12019 | 16.55605 | 623 ft | 0 kts | 116° |